Time;durP1;ratioP1;P1;durP2;ratioP2;P2;SDS_P1;SDS_P2;PMS_P1;PMS_P2;Temp;Humidity;BMP_temperature;BMP_pressure;BME280_temperature;BME280_humidity;BME280_pressure;Samples;Min_cycle;Max_cycle;Signal;HPM_P1;HPM_P2
2022/03/22 00:01:08;;;;;;;9.40;9.10;;;2.50;99.90;;;;;;5102056;28;20303;-80
2022/03/22 00:03:40;;;;;;;9.67;9.37;;;2.40;99.90;;;;;;5100963;28;20275;-80
2022/03/22 00:06:12;;;;;;;9.70;9.40;;;2.40;99.90;;;;;;5102461;28;20232;-79
2022/03/22 00:08:40;;;;;;;9.80;9.50;;;2.40;99.90;;;;;;5101682;28;20229;-79
2022/03/22 00:11:08;;;;;;;9.77;9.47;;;2.30;99.90;;;;;;5101989;28;20232;-79
2022/03/22 00:13:37;;;;;;;10.07;9.77;;;2.30;99.90;;;;;;5103770;28;20237;-80
2022/03/22 00:16:07;;;;;;;9.90;9.60;;;2.20;99.90;;;;;;5101742;28;20233;-79
2022/03/22 00:18:36;;;;;;;9.80;9.50;;;2.10;99.90;;;;;;5102870;28;20945;-79
2022/03/22 00:21:06;;;;;;;10.10;9.80;;;2.00;99.90;;;;;;5100955;28;20233;-79
2022/03/22 00:23:40;;;;;;;10.03;9.73;;;2.00;99.90;;;;;;5100376;28;20275;-79
2022/03/22 00:26:08;;;;;;;10.10;9.80;;;1.90;99.90;;;;;;5100481;28;20287;-79
2022/03/22 00:28:36;;;;;;;9.80;9.50;;;1.80;99.90;;;;;;5100297;28;20237;-79
2022/03/22 00:31:04;;;;;;;9.70;9.40;;;1.70;99.90;;;;;;5100511;28;20280;-79
2022/03/22 00:33:34;;;;;;;10.07;9.77;;;1.70;99.90;;;;;;5101320;28;20237;-78
2022/03/22 00:36:02;;;;;;;9.80;9.50;;;1.70;99.90;;;;;;5100926;28;20237;-78
2022/03/22 00:38:30;;;;;;;9.90;9.60;;;1.70;99.90;;;;;;5100595;28;20217;-79
2022/03/22 00:41:01;;;;;;;9.80;9.50;;;1.70;99.90;;;;;;5100568;28;20244;-79
2022/03/22 00:43:30;;;;;;;10.07;9.77;;;1.60;99.90;;;;;;5101030;28;20225;-79
2022/03/22 00:45:59;;;;;;;9.87;9.57;;;1.70;99.90;;;;;;5102667;28;20241;-79
2022/03/22 00:48:27;;;;;;;10.00;9.70;;;1.60;99.90;;;;;;5103465;28;20237;-79
2022/03/22 00:50:57;;;;;;;9.90;9.60;;;1.60;99.90;;;;;;5102887;28;20244;-78
2022/03/22 00:53:26;;;;;;;9.90;9.60;;;1.50;99.90;;;;;;5108937;28;20226;-79
2022/03/22 00:56:00;;;;;;;9.90;9.60;;;1.50;99.90;;;;;;5106329;28;20241;-80
2022/03/22 00:58:30;;;;;;;9.87;9.57;;;1.40;99.90;;;;;;5105665;28;20928;-79
2022/03/22 01:00:57;;;;;;;9.70;9.40;;;1.30;99.90;;;;;;5104560;28;20248;-79
2022/03/22 01:03:27;;;;;;;9.90;9.60;;;1.30;99.90;;;;;;5107566;28;20249;-78
2022/03/22 01:05:56;;;;;;;9.97;9.67;;;1.30;99.90;;;;;;5111934;28;20248;-78
2022/03/22 01:08:25;;;;;;;9.90;9.60;;;1.30;99.90;;;;;;5107065;28;20229;-77
2022/03/22 01:10:53;;;;;;;10.20;9.90;;;1.30;99.90;;;;;;5109065;28;20229;-78
2022/03/22 01:13:23;;;;;;;10.00;9.70;;;1.30;99.90;;;;;;5108439;28;20256;-78
2022/03/22 01:15:53;;;;;;;10.10;9.80;;;1.20;99.90;;;;;;5110065;28;20274;-78
2022/03/22 01:18:23;;;;;;;9.70;9.40;;;1.10;99.90;;;;;;5111261;28;20253;-78
2022/03/22 01:20:52;;;;;;;9.50;9.20;;;1.00;99.90;;;;;;5112636;28;20217;-78
2022/03/22 01:23:21;;;;;;;9.47;9.17;;;0.90;99.90;;;;;;5117748;28;20234;-77
2022/03/22 01:25:51;;;;;;;10.20;9.90;;;0.80;99.90;;;;;;5119926;28;20229;-79
2022/03/22 01:28:19;;;;;;;10.00;9.70;;;0.80;99.90;;;;;;5121228;28;20247;-77
2022/03/22 01:30:47;;;;;;;10.23;9.93;;;0.70;99.90;;;;;;5119110;28;20256;-78
2022/03/22 01:33:17;;;;;;;10.20;9.90;;;0.70;99.90;;;;;;5119807;28;20229;-76
2022/03/22 01:35:45;;;;;;;10.10;9.80;;;0.70;99.90;;;;;;5121712;28;20230;-78
2022/03/22 01:38:14;;;;;;;10.40;10.10;;;0.70;99.90;;;;;;5122196;28;20244;-77
2022/03/22 01:40:42;;;;;;;10.07;9.77;;;0.70;99.90;;;;;;5122453;28;20255;-79
2022/03/22 01:43:10;;;;;;;10.13;9.83;;;0.70;99.90;;;;;;5122078;28;20209;-76
2022/03/22 01:45:38;;;;;;;10.30;10.00;;;0.70;99.90;;;;;;5121105;28;20210;-77
2022/03/22 01:48:07;;;;;;;10.07;9.77;;;0.60;99.90;;;;;;5119738;28;20227;-77
2022/03/22 01:50:39;;;;;;;10.20;9.90;;;0.60;99.90;;;;;;5117007;28;20286;-79
2022/03/22 01:53:10;;;;;;;10.00;9.70;;;0.60;99.90;;;;;;5117473;28;20229;-77
2022/03/22 01:55:38;;;;;;;10.17;9.87;;;0.70;99.90;;;;;;5120695;28;20244;-79
2022/03/22 01:58:06;;;;;;;10.10;9.80;;;0.60;99.90;;;;;;5121146;28;20240;-76
2022/03/22 02:00:34;;;;;;;10.10;9.80;;;0.60;99.90;;;;;;5121468;28;20229;-77
2022/03/22 02:08:56;;;;;;;10.40;10.10;;;0.60;99.90;;;;;;5113468;28;20254;-78
2022/03/22 02:11:24;;;;;;;10.37;10.07;;;0.50;99.90;;;;;;5116913;28;20283;-79
2022/03/22 02:13:56;;;;;;;10.30;10.00;;;0.40;99.90;;;;;;5114392;28;20222;-79
2022/03/22 02:16:24;;;;;;;10.60;10.30;;;0.40;99.90;;;;;;5103340;28;20244;-79
2022/03/22 02:18:53;;;;;;;10.37;10.07;;;0.40;99.90;;;;;;5102575;28;20236;-79
2022/03/22 02:21:27;;;;;;;10.27;9.97;;;0.40;99.90;;;;;;5102371;28;20234;-78
2022/03/22 02:23:57;;;;;;;10.30;10.00;;;0.40;99.90;;;;;;5102765;28;20230;-79
2022/03/22 02:26:28;;;;;;;10.03;9.73;;;0.40;99.90;;;;;;5102677;28;20217;-79
2022/03/22 02:28:56;;;;;;;10.27;9.97;;;0.40;99.90;;;;;;5102694;28;20221;-79
2022/03/22 02:31:25;;;;;;;10.60;10.30;;;0.40;99.90;;;;;;5103177;28;20241;-79
2022/03/22 02:33:54;;;;;;;9.93;9.63;;;0.40;99.90;;;;;;5103257;28;20229;-79
2022/03/22 02:36:22;;;;;;;10.20;9.90;;;0.40;99.90;;;;;;5103985;28;20294;-79
2022/03/22 02:38:51;;;;;;;10.43;10.13;;;0.40;99.90;;;;;;5102694;28;20667;-78
2022/03/22 02:41:22;;;;;;;10.50;10.20;;;0.30;99.90;;;;;;5102480;28;20244;-79
2022/03/22 02:43:51;;;;;;;10.60;10.30;;;0.30;99.90;;;;;;5101920;28;20229;-79
2022/03/22 02:46:19;;;;;;;10.13;9.83;;;0.30;99.90;;;;;;5107387;28;20233;-78
2022/03/22 02:48:49;;;;;;;10.30;10.00;;;0.30;99.90;;;;;;5102755;28;20287;-78
2022/03/22 02:51:18;;;;;;;10.20;9.90;;;0.20;99.90;;;;;;5101553;28;20263;-78
2022/03/22 02:53:46;;;;;;;10.70;10.40;;;0.20;99.90;;;;;;5101444;28;20229;-78
2022/03/22 02:56:15;;;;;;;10.20;9.90;;;0.20;99.90;;;;;;5101128;28;20801;-78
2022/03/22 02:58:46;;;;;;;10.20;9.90;;;0.20;99.90;;;;;;5101667;28;20303;-79
2022/03/22 03:01:15;;;;;;;10.20;9.90;;;0.20;99.90;;;;;;5102443;28;20244;-78
2022/03/22 03:03:43;;;;;;;10.13;9.83;;;0.20;99.90;;;;;;5101757;28;20287;-78
2022/03/22 03:06:12;;;;;;;10.10;9.80;;;0.20;99.90;;;;;;5101680;28;20291;-78
2022/03/22 03:08:41;;;;;;;10.00;9.70;;;0.20;99.90;;;;;;5101848;28;20290;-79
2022/03/22 03:11:10;;;;;;;10.30;10.00;;;0.10;99.90;;;;;;5101472;28;20340;-79
2022/03/22 03:16:24;;;;;;;10.50;10.20;;;0.10;99.90;;;;;;5102154;28;20248;-79
2022/03/22 03:18:52;;;;;;;10.60;10.30;;;0.00;99.90;;;;;;5101103;28;20268;-78
2022/03/22 03:21:19;;;;;;;10.30;10.00;;;0.00;99.90;;;;;;5100994;28;20253;-78
2022/03/22 03:23:47;;;;;;;10.13;9.83;;;-0.10;99.90;;;;;;5101121;28;20307;-79
2022/03/22 03:26:15;;;;;;;10.40;10.10;;;-0.10;99.90;;;;;;5100823;28;20240;-79
2022/03/22 03:28:44;;;;;;;10.37;10.07;;;-0.10;99.90;;;;;;5101331;28;20237;-78
2022/03/22 03:31:11;;;;;;;10.27;9.97;;;-0.10;99.90;;;;;;5101307;28;20229;-79
2022/03/22 03:33:41;;;;;;;10.50;10.20;;;-0.10;99.90;;;;;;5107446;28;20229;-79
2022/03/22 03:36:09;;;;;;;10.47;10.17;;;-0.20;99.90;;;;;;5106902;28;20251;-77
2022/03/22 03:38:41;;;;;;;10.80;10.50;;;-0.20;99.90;;;;;;5105601;28;20255;-79
2022/03/22 03:43:54;;;;;;;10.90;10.60;;;-0.30;99.90;;;;;;5102244;28;20312;-79
2022/03/22 03:49:09;;;;;;;10.80;10.50;;;-0.30;99.90;;;;;;5101872;28;20228;-79
2022/03/22 03:51:38;;;;;;;10.57;10.27;;;-0.40;99.90;;;;;;5101786;28;20237;-79
2022/03/22 03:54:07;;;;;;;10.83;10.53;;;-0.40;99.90;;;;;;5101596;28;20233;-79
2022/03/22 03:56:38;;;;;;;10.70;10.40;;;-0.40;99.90;;;;;;5101728;28;20236;-79
2022/03/22 03:59:08;;;;;;;10.90;10.60;;;-0.40;99.90;;;;;;5102433;28;20314;-80
2022/03/22 04:01:37;;;;;;;10.70;10.40;;;-0.40;99.90;;;;;;5102661;28;20302;-80
2022/03/22 04:04:10;;;;;;;10.70;10.40;;;-0.30;99.90;;;;;;5102057;28;20268;-80
2022/03/22 04:06:40;;;;;;;10.43;10.13;;;-0.40;99.90;;;;;;5102438;28;20209;-80
2022/03/22 04:09:08;;;;;;;10.73;10.43;;;-0.30;99.90;;;;;;5101349;28;20240;-80
2022/03/22 04:11:38;;;;;;;11.00;10.70;;;-0.40;99.90;;;;;;5102450;28;20263;-80
2022/03/22 04:14:06;;;;;;;10.57;10.27;;;-0.40;99.90;;;;;;5102269;28;20241;-80
2022/03/22 04:16:36;;;;;;;10.80;10.50;;;-0.40;99.90;;;;;;5101441;28;20233;-80
2022/03/22 04:19:05;;;;;;;10.90;10.60;;;-0.40;99.90;;;;;;5101736;28;20264;-80
2022/03/22 04:21:34;;;;;;;10.50;10.20;;;-0.40;99.90;;;;;;5108618;28;20293;-79
2022/03/22 04:24:14;;;;;;;10.80;10.50;;;-0.50;99.90;;;;;;5118244;28;20228;-80
2022/03/22 04:26:44;;;;;;;10.80;10.50;;;-0.50;99.90;;;;;;5105909;28;20221;-80
2022/03/22 04:34:46;;;;;;;10.47;10.17;;;-0.50;99.90;;;;;;5106282;28;20222;-80
2022/03/22 04:37:16;;;;;;;10.90;10.60;;;-0.50;99.90;;;;;;5104149;28;20255;-80
2022/03/22 04:42:32;;;;;;;10.53;10.23;;;-0.50;99.90;;;;;;5105737;28;20646;-80
2022/03/22 04:45:01;;;;;;;10.10;9.80;;;-0.50;99.90;;;;;;5105792;28;20236;-80
2022/03/22 04:47:30;;;;;;;10.47;10.17;;;-0.50;99.90;;;;;;5105129;28;20242;-80
2022/03/22 04:50:00;;;;;;;10.80;10.50;;;-0.50;99.90;;;;;;5104902;28;20340;-80
2022/03/22 04:58:14;;;;;;;10.80;10.50;;;-0.60;99.90;;;;;;5104998;28;20269;-80
2022/03/22 05:00:42;;;;;;;11.17;10.87;;;-0.60;99.90;;;;;;5104542;28;20229;-80
2022/03/22 05:03:11;;;;;;;11.03;10.73;;;-0.70;99.90;;;;;;5105233;28;20229;-78
2022/03/22 05:08:29;;;;;;;11.30;11.00;;;-0.70;99.90;;;;;;5104953;28;20233;-79
2022/03/22 05:11:07;;;;;;;11.17;10.87;;;-0.70;99.90;;;;;;5105120;28;20222;-79
2022/03/22 05:13:35;;;;;;;11.10;10.80;;;-0.70;99.90;;;;;;5108615;28;20233;-79
2022/03/22 05:16:05;;;;;;;11.30;11.00;;;-0.70;99.90;;;;;;5116533;28;20221;-84
2022/03/22 05:18:34;;;;;;;11.27;10.97;;;-0.80;99.90;;;;;;5115536;28;20256;-81
2022/03/22 05:21:04;;;;;;;10.93;10.63;;;-0.70;99.90;;;;;;5120262;28;20271;-82
2022/03/22 05:23:33;;;;;;;10.90;10.60;;;-0.70;99.90;;;;;;5118547;28;20277;-82
2022/03/22 05:26:12;;;;;;;10.70;10.40;;;-0.70;99.90;;;;;;5111934;28;20232;-81
2022/03/22 05:28:40;;;;;;;11.13;10.83;;;-0.80;99.90;;;;;;5106965;28;20316;-81
2022/03/22 05:31:13;;;;;;;10.53;10.23;;;-0.80;99.90;;;;;;5110316;28;20233;-82
2022/03/22 05:33:41;;;;;;;10.80;10.50;;;-0.80;99.90;;;;;;5115615;28;20223;-79
2022/03/22 05:36:11;;;;;;;10.90;10.60;;;-0.90;99.90;;;;;;5113752;28;20244;-82
2022/03/22 05:38:39;;;;;;;10.63;10.33;;;-0.80;99.90;;;;;;5107733;28;20259;-81
2022/03/22 05:41:15;;;;;;;10.90;10.60;;;-0.80;99.90;;;;;;5106862;28;21018;-81
2022/03/22 05:43:44;;;;;;;11.00;10.70;;;-0.80;99.90;;;;;;5107388;28;20283;-81
2022/03/22 05:46:15;;;;;;;11.00;10.70;;;-0.70;99.90;;;;;;5107592;28;20221;-79
2022/03/22 05:48:44;;;;;;;10.90;10.60;;;-0.70;99.90;;;;;;5148521;22;20318;-84
2022/03/22 05:51:14;;;;;;;10.80;10.50;;;-0.60;99.90;;;;;;5089598;28;20284;-84
2022/03/22 05:53:42;;;;;;;10.97;10.67;;;-0.60;99.90;;;;;;5095969;28;20230;-84
2022/03/22 05:56:13;;;;;;;11.10;10.80;;;-0.60;99.90;;;;;;5089244;28;20439;-83
2022/03/22 05:58:43;;;;;;;10.73;10.43;;;-0.50;99.90;;;;;;5075225;28;20231;-83
2022/03/22 06:01:12;;;;;;;10.73;10.43;;;-0.50;99.90;;;;;;5078053;28;20260;-83
2022/03/22 06:03:44;;;;;;;10.40;10.10;;;-0.50;99.90;;;;;;5078332;28;20231;-83
2022/03/22 06:06:13;;;;;;;10.40;10.10;;;-0.50;99.90;;;;;;5078311;28;20221;-83
2022/03/22 06:08:42;;;;;;;10.40;10.10;;;-0.50;99.90;;;;;;5088568;28;20218;-82
2022/03/22 06:11:20;;;;;;;10.70;10.40;;;-0.40;99.90;;;;;;5085224;28;20221;-83
2022/03/22 06:13:50;;;;;;;10.80;10.50;;;-0.30;99.90;;;;;;5080266;28;20202;-83
2022/03/22 06:16:20;;;;;;;10.60;10.30;;;-0.20;99.90;;;;;;5080502;28;20218;-84
2022/03/22 06:18:49;;;;;;;10.60;10.30;;;-0.20;99.90;;;;;;5080020;28;20223;-84
2022/03/22 06:21:19;;;;;;;11.00;10.70;;;-0.20;99.90;;;;;;5087935;28;20235;-84
2022/03/22 06:23:47;;;;;;;10.77;10.47;;;-0.20;99.90;;;;;;5086224;28;20256;-85
2022/03/22 06:26:17;;;;;;;10.87;10.57;;;-0.10;99.90;;;;;;5074151;28;20234;-85
2022/03/22 06:28:48;;;;;;;10.30;10.00;;;0.00;99.90;;;;;;5074892;28;20354;-85
2022/03/22 06:31:16;;;;;;;10.30;10.00;;;0.10;99.90;;;;;;5074492;28;20234;-84
2022/03/22 06:33:45;;;;;;;10.53;10.23;;;0.10;99.90;;;;;;5074123;28;20235;-84
2022/03/22 06:36:15;;;;;;;10.40;10.10;;;0.20;99.90;;;;;;5073600;28;20440;-84
2022/03/22 06:38:44;;;;;;;10.27;9.97;;;0.30;99.90;;;;;;5075327;28;20223;-84
2022/03/22 06:41:14;;;;;;;10.30;10.00;;;0.40;99.90;;;;;;5078155;28;20238;-84
2022/03/22 06:44:27;;;;;;;10.00;9.70;;;0.50;99.90;;;;;;5077901;28;20285;-85
2022/03/22 06:47:06;;;;;;;10.23;9.93;;;0.70;99.90;;;;;;5077963;28;20215;-85
2022/03/22 06:49:34;;;;;;;10.63;10.33;;;1.00;99.90;;;;;;5075562;28;20242;-84
2022/03/22 06:52:05;;;;;;;10.83;10.53;;;1.20;99.90;;;;;;5071937;28;20227;-85
2022/03/22 06:54:33;;;;;;;10.83;10.53;;;1.30;99.90;;;;;;5072264;28;20241;-84
2022/03/22 06:57:02;;;;;;;10.63;10.33;;;1.50;99.90;;;;;;5072791;28;20253;-85
2022/03/22 06:59:31;;;;;;;10.90;10.60;;;1.60;99.90;;;;;;5072447;28;20240;-85
2022/03/22 07:02:07;;;;;;;10.67;10.37;;;1.60;99.90;;;;;;5073968;28;20234;-84
2022/03/22 07:04:40;;;;;;;10.82;10.52;;;1.70;99.90;;;;;;5077660;28;20469;-87
2022/03/22 07:07:09;;;;;;;10.60;10.30;;;1.80;99.90;;;;;;5079454;28;20204;-86
2022/03/22 07:09:39;;;;;;;10.43;10.13;;;2.00;99.90;;;;;;5078961;28;20249;-87
2022/03/22 07:12:08;;;;;;;11.00;10.70;;;2.10;99.90;;;;;;5079021;28;20199;-87
2022/03/22 07:14:40;;;;;;;10.73;10.43;;;2.30;99.90;;;;;;5079086;28;20228;-85
2022/03/22 07:17:10;;;;;;;10.77;10.47;;;2.40;99.90;;;;;;5079289;28;20211;-87
2022/03/22 07:19:39;;;;;;;10.40;10.10;;;2.50;99.90;;;;;;5079177;28;20230;-85
2022/03/22 07:22:07;;;;;;;10.70;10.40;;;2.70;99.90;;;;;;5079047;28;20277;-87
2022/03/22 07:24:36;;;;;;;10.40;10.10;;;2.80;99.90;;;;;;5078474;28;20218;-84
2022/03/22 07:27:05;;;;;;;10.90;10.60;;;2.90;99.90;;;;;;5078720;28;20234;-84
2022/03/22 07:29:33;;;;;;;10.90;10.60;;;3.10;99.90;;;;;;5083002;28;20246;-84
2022/03/22 07:32:01;;;;;;;10.50;10.20;;;3.20;99.90;;;;;;5091832;28;20216;-85
2022/03/22 07:34:40;;;;;;;10.83;10.53;;;3.40;99.90;;;;;;5096385;28;20226;-84
2022/03/22 07:37:08;;;;;;;10.70;10.40;;;3.60;99.90;;;;;;5097308;28;20242;-83
2022/03/22 07:39:45;;;;;;;10.50;10.20;;;3.80;99.90;;;;;;5096284;28;20229;-84
2022/03/22 07:42:13;;;;;;;10.40;10.10;;;3.90;99.90;;;;;;5096399;28;20241;-84
2022/03/22 07:44:41;;;;;;;11.17;10.87;;;4.10;99.90;;;;;;5096141;28;20230;-84
2022/03/22 07:47:09;;;;;;;11.10;10.80;;;4.30;99.90;;;;;;5095867;28;20404;-83
2022/03/22 07:55:10;;;;;;;10.80;10.50;;;4.80;99.90;;;;;;5096025;28;20237;-83
2022/03/22 08:00:22;;;;;;;10.23;9.93;;;5.20;99.90;;;;;;5094084;28;20265;-84
2022/03/22 08:02:55;;;;;;;10.10;9.80;;;5.40;99.90;;;;;;5093546;28;20282;-84
2022/03/22 08:05:25;;;;;;;10.13;9.83;;;5.60;99.90;;;;;;5096460;28;20260;-84
2022/03/22 08:07:54;;;;;;;10.10;9.80;;;5.70;99.90;;;;;;5096617;28;20222;-83
2022/03/22 08:10:22;;;;;;;10.50;10.20;;;5.90;99.90;;;;;;5097079;28;20248;-83
2022/03/22 08:13:00;;;;;;;10.63;10.33;;;6.00;99.90;;;;;;5099326;28;20381;-84
2022/03/22 08:15:28;;;;;;;10.60;10.30;;;6.10;99.90;;;;;;5102296;28;20209;-87
2022/03/22 08:17:57;;;;;;;10.37;10.07;;;6.40;99.90;;;;;;5102336;28;20206;-88
2022/03/22 08:20:30;;;;;;;10.40;10.10;;;6.60;99.90;;;;;;5085429;28;20214;-87
2022/03/22 08:25:48;;;;;;;10.77;10.47;;;6.90;99.90;;;;;;5098528;28;20206;-87
2022/03/22 08:28:25;;;;;;;10.67;10.37;;;7.20;99.90;;;;;;5101574;28;20214;-87
2022/03/22 08:49:40;;;;;;;10.70;10.40;;;8.70;99.90;;;;;;5118539;27;20213;-90
2022/03/22 08:59:13;;;;;;;10.37;10.07;;;9.40;99.90;;;;;;4847519;28;20281;-85
2022/03/22 09:08:05;;;;;;;10.67;10.37;;;9.80;99.90;;;;;;5038004;28;20404;-86
2022/03/22 09:13:22;;;;;;;10.63;10.33;;;10.00;99.90;;;;;;5100875;28;20206;-85
2022/03/22 09:16:15;;;;;;;10.60;10.30;;;10.20;99.90;;;;;;5119431;22;20307;-88
2022/03/22 09:18:48;;;;;;;10.40;10.10;;;10.40;99.90;;;;;;5119503;28;20498;-88
2022/03/22 09:34:59;;;;;;;10.27;9.97;;;12.20;99.90;;;;;;5215291;22;20257;-79
2022/03/22 09:37:51;;;;;;;10.37;10.07;;;12.20;99.90;;;;;;5094697;27;20225;-85
2022/03/22 09:40:26;;;;;;;10.47;10.17;;;12.30;99.90;;;;;;5101126;27;20272;-84
2022/03/22 09:42:56;;;;;;;10.70;10.40;;;12.70;99.90;;;;;;5099244;27;20229;-81
2022/03/22 09:45:34;;;;;;;10.60;10.30;;;12.90;99.90;;;;;;5097243;27;20222;-85
2022/03/22 09:48:04;;;;;;;10.70;10.40;;;12.90;99.90;;;;;;5090360;28;20281;-84
2022/03/22 09:53:22;;;;;;;10.40;10.10;;;13.20;99.90;;;;;;5087659;28;20293;-85
2022/03/22 09:55:53;;;;;;;10.33;10.03;;;13.50;99.90;;;;;;5089039;28;20215;-83
2022/03/22 09:58:23;;;;;;;10.50;10.20;;;13.80;99.90;;;;;;5086613;28;20237;-80
2022/03/22 10:00:51;;;;;;;10.80;10.50;;;14.10;99.90;;;;;;5085690;28;20242;-79
2022/03/22 10:03:22;;;;;;;10.87;10.57;;;14.00;99.90;;;;;;5077188;28;20243;-78
2022/03/22 10:06:01;;;;;;;10.60;10.30;;;14.30;99.90;;;;;;5064101;28;20231;-85
2022/03/22 10:08:29;;;;;;;10.53;10.23;;;14.20;99.90;;;;;;5065072;28;20290;-86
2022/03/22 10:11:01;;;;;;;10.17;9.87;;;14.50;99.90;;;;;;5069425;28;20249;-82
2022/03/22 10:13:48;;;;;;;10.57;10.27;;;14.90;99.90;;;;;;5067189;28;20233;-81
2022/03/22 10:16:16;;;;;;;9.98;9.68;;;15.10;99.90;;;;;;5064795;28;20227;-80
2022/03/22 10:18:43;;;;;;;10.55;10.25;;;15.00;99.20;;;;;;5063735;28;20254;-82
2022/03/22 10:21:13;;;;;;;10.50;10.20;;;15.20;99.90;;;;;;5062317;28;20235;-80
2022/03/22 10:31:45;;;;;;;10.27;9.98;;;15.60;97.30;;;;;;5007571;28;20219;-83
2022/03/22 10:34:33;;;;;;;10.70;10.40;;;15.70;98.00;;;;;;5077189;28;20234;-83
2022/03/22 10:37:21;;;;;;;;;;;;;;;;;;;;;
2022/03/22 10:40:24;;;;;;;10.82;10.52;;;15.80;95.70;;;;;;5064595;28;20227;-84
2022/03/22 10:43:04;;;;;;;10.98;10.68;;;16.10;95.20;;;;;;5063130;28;20238;-83
2022/03/22 10:45:44;;;;;;;10.40;10.10;;;16.60;95.00;;;;;;5068579;28;20309;-83
2022/03/22 10:48:19;;;;;;;10.45;10.15;;;17.00;94.80;;;;;;5087028;28;20235;-84
2022/03/22 10:50:51;;;;;;;10.30;10.00;;;17.20;90.10;;;;;;5087824;28;20236;-85
2022/03/22 10:56:34;;;;;;;10.20;9.90;;;17.40;88.80;;;;;;5081609;28;20234;-85
2022/03/22 11:06:08;;;;;;;11.18;10.88;;;18.30;83.90;;;;;;5068862;28;20292;-81
2022/03/22 11:08:42;;;;;;;10.80;10.50;;;17.80;81.60;;;;;;5063199;28;20233;-83
2022/03/22 11:11:10;;;;;;;10.93;10.63;;;17.80;85.60;;;;;;5061836;28;20243;-87
2022/03/22 11:18:14;;;;;;;10.93;10.63;;;18.70;86.30;;;;;;5000493;28;20348;-85
2022/03/22 11:22:19;;;;;;;10.80;10.50;;;19.20;79.80;;;;;;5002035;28;20291;-85
2022/03/22 11:25:52;;;;;;;10.80;10.50;;;19.80;79.30;;;;;;4959883;28;20300;-84
2022/03/22 11:44:36;;;;;;;10.60;10.30;;;20.30;73.10;;;;;;5065834;28;20231;-85
2022/03/22 11:47:51;;;;;;;10.65;10.35;;;20.20;71.00;;;;;;5068465;28;20230;-83
2022/03/22 12:04:54;;;;;;;10.50;10.20;;;20.20;73.30;;;;;;5015514;28;20238;-82
2022/03/22 12:11:17;;;;;;;10.80;10.50;;;21.40;65.50;;;;;;5061944;28;20289;-82
2022/03/22 12:13:48;;;;;;;10.75;10.45;;;21.00;64.20;;;;;;4982295;28;20225;-84
2022/03/22 12:19:30;;;;;;;11.02;10.73;;;21.10;63.60;;;;;;5060988;28;20245;-82
2022/03/22 12:22:00;;;;;;;11.48;11.07;;;21.50;65.00;;;;;;5062417;28;20301;-82
2022/03/22 12:24:33;;;;;;;11.50;11.10;;;22.10;64.40;;;;;;5064530;28;20270;-83
2022/03/22 12:27:38;;;;;;;10.95;10.65;;;21.80;61.30;;;;;;5063397;28;20234;-84
2022/03/22 12:30:11;;;;;;;10.88;10.57;;;22.20;61.50;;;;;;5060556;28;20245;-83
2022/03/22 12:32:40;;;;;;;11.07;10.77;;;22.60;63.80;;;;;;5063376;28;20235;-81
2022/03/22 12:35:10;;;;;;;11.20;10.90;;;22.70;63.60;;;;;;5061401;28;20738;-82
2022/03/22 12:37:38;;;;;;;11.00;10.70;;;22.70;62.00;;;;;;5060137;28;20227;-79
2022/03/22 12:40:16;;;;;;;10.85;10.55;;;22.40;60.20;;;;;;5060336;28;20323;-83
2022/03/22 12:42:45;;;;;;;10.90;10.60;;;22.30;60.30;;;;;;5060779;28;20222;-83
2022/03/22 12:45:14;;;;;;;11.10;10.80;;;22.40;60.00;;;;;;5060761;28;20238;-83
2022/03/22 12:47:44;;;;;;;11.10;10.80;;;22.20;58.20;;;;;;5061439;28;20253;-84
2022/03/22 12:50:17;;;;;;;10.70;10.40;;;22.30;57.50;;;;;;5062256;28;20239;-84
2022/03/22 12:53:01;;;;;;;10.80;10.50;;;22.60;58.80;;;;;;5061503;28;20230;-84
2022/03/22 12:55:30;;;;;;;10.95;10.65;;;22.40;56.60;;;;;;5062506;28;20219;-83
2022/03/22 12:58:02;;;;;;;10.90;10.60;;;22.30;59.30;;;;;;5062770;28;20234;-84
2022/03/22 13:00:37;;;;;;;11.13;10.82;;;22.10;58.00;;;;;;5064565;28;20243;-83
2022/03/22 13:03:16;;;;;;;11.13;10.82;;;22.70;57.80;;;;;;5065361;28;20214;-83
2022/03/22 13:05:47;;;;;;;11.38;11.07;;;23.10;57.10;;;;;;5065795;28;20262;-82
2022/03/22 13:08:17;;;;;;;11.10;10.80;;;23.60;57.30;;;;;;5065126;28;20231;-82
2022/03/22 13:16:22;;;;;;;10.90;10.60;;;23.70;58.30;;;;;;5066289;28;20226;-86
2022/03/22 13:18:57;;;;;;;11.00;10.70;;;23.50;57.90;;;;;;5065572;28;20234;-85
2022/03/22 13:27:02;;;;;;;11.38;11.07;;;23.80;56.40;;;;;;5079136;28;20211;-86
2022/03/22 13:29:39;;;;;;;11.10;10.80;;;24.30;55.40;;;;;;5082203;28;20269;-87
2022/03/22 13:32:11;;;;;;;11.70;11.30;;;24.60;57.80;;;;;;5081246;28;20250;-86
2022/03/22 13:34:49;;;;;;;11.18;10.88;;;24.40;54.80;;;;;;5079872;28;20211;-87
2022/03/22 13:37:28;;;;;;;10.88;10.57;;;24.50;54.60;;;;;;5068489;28;20223;-86
2022/03/22 13:40:11;;;;;;;11.20;10.90;;;24.50;53.30;;;;;;5067116;28;20249;-86
2022/03/22 13:42:55;;;;;;;11.30;11.00;;;24.40;52.30;;;;;;5064409;28;20223;-87
2022/03/22 13:45:28;;;;;;;11.10;10.80;;;23.80;52.60;;;;;;5047442;28;20223;-85
2022/03/22 13:47:58;;;;;;;11.30;11.00;;;22.80;56.20;;;;;;5042929;28;20313;-86
2022/03/22 13:50:35;;;;;;;11.20;10.90;;;22.20;53.10;;;;;;5043551;28;20266;-86
2022/03/22 13:53:11;;;;;;;10.95;10.65;;;21.90;55.80;;;;;;5041865;28;20238;-85
2022/03/22 13:55:42;;;;;;;11.07;10.77;;;22.10;56.90;;;;;;5042492;28;20323;-83
2022/03/22 13:58:13;;;;;;;11.23;10.93;;;22.50;54.90;;;;;;5042617;28;20235;-85
2022/03/22 14:00:45;;;;;;;10.70;10.40;;;22.30;56.50;;;;;;5041478;28;20266;-82
2022/03/22 14:03:16;;;;;;;10.95;10.65;;;22.40;53.20;;;;;;5040955;28;20240;-87
2022/03/22 14:05:52;;;;;;;11.18;10.88;;;22.60;54.20;;;;;;5042155;28;20242;-87
2022/03/22 14:08:30;;;;;;;11.20;10.90;;;22.70;53.50;;;;;;5055029;28;20233;-87
2022/03/22 14:10:59;;;;;;;11.00;10.70;;;22.30;52.50;;;;;;5083364;28;20953;-84
2022/03/22 14:13:38;;;;;;;11.10;10.80;;;21.90;54.30;;;;;;5084236;28;20222;-88
2022/03/22 14:16:13;;;;;;;10.95;10.65;;;22.00;56.20;;;;;;5083482;28;20233;-82
2022/03/22 14:18:45;;;;;;;10.65;10.35;;;22.60;57.70;;;;;;5084086;28;20236;-84
2022/03/22 14:21:17;;;;;;;10.50;10.20;;;23.10;55.00;;;;;;5082444;28;20249;-83
2022/03/22 14:23:45;;;;;;;10.75;10.45;;;23.00;56.10;;;;;;5082626;28;20241;-81
2022/03/22 14:26:14;;;;;;;10.90;10.60;;;23.30;57.70;;;;;;5082675;28;20226;-82
2022/03/22 14:28:43;;;;;;;10.90;10.60;;;23.80;54.50;;;;;;5080563;28;20219;-82
2022/03/22 14:31:11;;;;;;;10.98;10.68;;;24.10;53.20;;;;;;5080744;28;20226;-81
2022/03/22 14:33:39;;;;;;;10.77;10.48;;;24.50;52.80;;;;;;5078747;28;20282;-81
2022/03/22 14:36:06;;;;;;;11.00;10.70;;;24.90;61.30;;;;;;5078376;28;20226;-80
2022/03/22 14:38:35;;;;;;;10.70;10.40;;;25.10;53.50;;;;;;5078292;28;20230;-78
2022/03/22 14:41:22;;;;;;;10.60;10.30;;;25.30;54.60;;;;;;5078009;28;20290;-79
2022/03/22 14:43:52;;;;;;;10.68;10.38;;;24.80;52.20;;;;;;5078261;28;20278;-79
2022/03/22 14:46:20;;;;;;;10.55;10.25;;;23.60;52.60;;;;;;5059762;28;20235;-79
2022/03/22 14:48:50;;;;;;;10.80;10.50;;;23.60;56.90;;;;;;5057738;28;20258;-80
2022/03/22 14:54:02;;;;;;;10.70;10.40;;;24.00;55.20;;;;;;5059027;28;20270;-79
2022/03/22 14:54:10;;;;;;;10.60;10.30;;;24.30;53.40;;;;;;5056696;28;20238;-79
2022/03/22 14:59:23;;;;;;;10.68;10.38;;;23.90;53.80;;;;;;5059980;28;20226;-81
2022/03/22 15:01:50;;;;;;;10.77;10.48;;;23.70;52.70;;;;;;5058989;28;20284;-78
2022/03/22 15:04:20;;;;;;;10.77;10.48;;;24.20;53.40;;;;;;5057504;28;20237;-79
2022/03/22 15:06:48;;;;;;;10.73;10.43;;;24.60;52.20;;;;;;5057803;28;20669;-79
2022/03/22 15:09:17;;;;;;;10.77;10.48;;;25.00;52.80;;;;;;5060462;28;20566;-81
2022/03/22 15:11:45;;;;;;;10.75;10.45;;;25.20;51.10;;;;;;5058004;28;20231;-79
2022/03/22 15:14:15;;;;;;;11.00;10.70;;;24.60;51.80;;;;;;5057981;28;20242;-80
2022/03/22 15:16:43;;;;;;;10.88;10.57;;;24.50;51.80;;;;;;5057529;28;20203;-80
2022/03/22 15:19:11;;;;;;;10.80;10.50;;;24.80;53.10;;;;;;5057266;28;20293;-80
2022/03/22 15:21:38;;;;;;;10.80;10.50;;;24.90;53.40;;;;;;5057005;28;20235;-80
2022/03/22 15:24:08;;;;;;;10.82;10.52;;;25.40;52.40;;;;;;5056777;28;20238;-80
2022/03/22 15:26:38;;;;;;;10.88;10.57;;;25.90;51.80;;;;;;5057296;28;20203;-80
2022/03/22 15:29:06;;;;;;;10.70;10.40;;;25.90;50.10;;;;;;5058504;28;20326;-82
2022/03/22 15:31:34;;;;;;;10.48;10.18;;;25.60;52.80;;;;;;5057883;28;20231;-81
2022/03/22 15:34:02;;;;;;;10.10;9.80;;;25.40;48.80;;;;;;5058906;28;20231;-81
2022/03/22 15:36:30;;;;;;;10.07;9.77;;;24.80;51.30;;;;;;5057813;28;20230;-82
2022/03/22 15:38:58;;;;;;;10.38;10.07;;;25.20;51.60;;;;;;5057484;28;20239;-81
2022/03/22 15:41:25;;;;;;;10.13;9.82;;;24.90;51.80;;;;;;5058617;28;20233;-81
2022/03/22 15:43:55;;;;;;;10.32;10.02;;;25.20;50.40;;;;;;5057615;28;20226;-82
2022/03/22 15:46:23;;;;;;;10.80;10.50;;;25.60;51.10;;;;;;5058030;28;20439;-82